sensor_id;sensor_type;location;lat;lon;timestamp;pressure;altitude;pressure_sealevel;temperature;humidity
66664;BME280;59683;51.428;-1.994;2023-04-02T13:38:34;101983.38;;;10.40;100.00
66664;BME280;59683;51.428;-1.994;2023-04-02T13:40:59;101980.41;;;11.64;100.00
66664;BME280;59683;51.428;-1.994;2023-04-02T13:43:25;101981.66;;;13.46;100.00
66664;BME280;59683;51.428;-1.994;2023-04-02T13:45:51;101984.66;;;14.41;100.00
66664;BME280;59683;51.428;-1.994;2023-04-02T13:48:18;101977.47;;;14.54;100.00
66664;BME280;59683;51.428;-1.994;2023-04-02T13:50:44;101985.72;;;14.38;100.00
66664;BME280;59683;51.428;-1.994;2023-04-02T13:53:20;101979.44;;;13.27;100.00
66664;BME280;59683;51.428;-1.994;2023-04-02T13:55:46;101975.06;;;13.65;100.00
66664;BME280;59683;51.428;-1.994;2023-04-02T13:58:12;101970.13;;;14.21;100.00
66664;BME280;59683;51.428;-1.994;2023-04-02T14:00:38;101973.16;;;13.67;100.00
66664;BME280;59683;51.428;-1.994;2023-04-02T14:03:16;101977.00;;;13.63;100.00
66664;BME280;59683;51.428;-1.994;2023-04-02T14:11:45;101969.69;;;15.44;100.00
66664;BME280;59683;51.428;-1.994;2023-04-02T14:35:18;101948.78;;;15.94;100.00
66664;BME280;59683;51.428;-1.994;2023-04-02T14:37:59;101944.22;;;16.81;78.15
66664;BME280;59683;51.428;-1.994;2023-04-02T14:40:49;101950.38;;;15.40;97.06
66664;BME280;59683;51.428;-1.994;2023-04-02T14:43:23;101951.56;;;13.95;100.00
66664;BME280;59683;51.428;-1.994;2023-04-02T14:45:56;101946.56;;;13.54;100.00
66664;BME280;59683;51.428;-1.994;2023-04-02T14:50:57;101942.84;;;15.12;100.00
66664;BME280;59683;51.428;-1.994;2023-04-02T14:53:31;101930.47;;;15.89;85.75
66664;BME280;59683;51.428;-1.994;2023-04-02T14:56:03;101931.44;;;17.06;69.45
66664;BME280;59683;51.428;-1.994;2023-04-02T14:58:39;101927.69;;;17.39;68.74
66664;BME280;59683;51.428;-1.994;2023-04-02T15:01:18;101928.47;;;17.70;59.98
66664;BME280;59683;51.428;-1.994;2023-04-02T15:03:49;101928.22;;;17.73;65.18
66664;BME280;59683;51.428;-1.994;2023-04-02T15:06:23;101924.19;;;17.17;73.52
66664;BME280;59683;51.428;-1.994;2023-04-02T15:08:57;101923.75;;;16.70;94.29
66664;BME280;59683;51.428;-1.994;2023-04-02T15:11:32;101937.72;;;16.42;82.41
66664;BME280;59683;51.428;-1.994;2023-04-02T15:14:22;101936.88;;;15.98;81.77
66664;BME280;59683;51.428;-1.994;2023-04-02T15:16:48;101934.28;;;16.19;85.80
66664;BME280;59683;51.428;-1.994;2023-04-02T15:19:16;101926.59;;;16.37;77.23
66664;BME280;59683;51.428;-1.994;2023-04-02T15:30:41;101934.56;;;18.32;61.14
66664;BME280;59683;51.428;-1.994;2023-04-02T15:38:37;101933.53;;;15.40;98.13
66664;BME280;59683;51.428;-1.994;2023-04-02T15:41:14;101932.31;;;15.33;82.02
66664;BME280;59683;51.428;-1.994;2023-04-02T15:49:17;101931.84;;;15.50;82.07
66664;BME280;59683;51.428;-1.994;2023-04-02T16:00:23;101927.78;;;14.88;100.00
66664;BME280;59683;51.428;-1.994;2023-04-02T16:03:31;101923.38;;;14.41;100.00
66664;BME280;59683;51.428;-1.994;2023-04-02T16:10:55;101916.38;;;13.17;100.00
66664;BME280;59683;51.428;-1.994;2023-04-02T16:13:28;101928.22;;;13.99;100.00
66664;BME280;59683;51.428;-1.994;2023-04-02T16:21:09;101937.63;;;13.04;100.00
66664;BME280;59683;51.428;-1.994;2023-04-02T16:23:38;101956.16;;;13.44;100.00
66664;BME280;59683;51.428;-1.994;2023-04-02T16:26:16;101952.13;;;13.88;100.00
66664;BME280;59683;51.428;-1.994;2023-04-02T16:39:51;101960.50;;;14.31;100.00
66664;BME280;59683;51.428;-1.994;2023-04-02T16:42:35;101953.50;;;13.31;100.00
66664;BME280;59683;51.428;-1.994;2023-04-02T16:50:42;101946.19;;;12.29;100.00
66664;BME280;59683;51.428;-1.994;2023-04-02T16:56:03;101950.31;;;13.26;100.00
66664;BME280;59683;51.428;-1.994;2023-04-02T17:01:59;101965.16;;;13.67;100.00
66664;BME280;59683;51.428;-1.994;2023-04-02T17:07:26;101966.25;;;14.73;86.28
66664;BME280;59683;51.428;-1.994;2023-04-02T17:10:22;101967.81;;;15.11;80.38
66664;BME280;59683;51.428;-1.994;2023-04-02T17:13:18;101968.03;;;15.07;88.83
66664;BME280;59683;51.428;-1.994;2023-04-02T17:16:03;101977.41;;;14.78;85.64
66664;BME280;59683;51.428;-1.994;2023-04-02T17:18:34;101972.97;;;14.30;82.01
66664;BME280;59683;51.428;-1.994;2023-04-02T17:21:05;101975.22;;;14.00;90.42
66664;BME280;59683;51.428;-1.994;2023-04-02T17:23:42;101978.47;;;13.67;96.58
66664;BME280;59683;51.428;-1.994;2023-04-02T17:26:13;101978.38;;;13.17;100.00
66664;BME280;59683;51.428;-1.994;2023-04-02T17:28:39;101991.22;;;13.10;100.00
66664;BME280;59683;51.428;-1.994;2023-04-02T17:31:13;101985.97;;;12.96;100.00
66664;BME280;59683;51.428;-1.994;2023-04-02T17:33:41;101993.81;;;12.72;100.00
66664;BME280;59683;51.428;-1.994;2023-04-02T17:39:06;102002.69;;;12.31;100.00
66664;BME280;59683;51.428;-1.994;2023-04-02T17:42:03;102003.63;;;11.75;100.00
